Time;durP1;ratioP1;P1;durP2;ratioP2;P2;SDS_P1;SDS_P2;PMS_P1;PMS_P2;Temp;Humidity;BMP_temperature;BMP_pressure;BME280_temperature;BME280_humidity;BME280_pressure;Samples;Min_cycle;Max_cycle;Signal;HPM_P1;HPM_P2
2023/11/14 00:01:58;;;;;;;23.00;3.13;;;;;;;9.77;83.26;98850.84;10397188;28;20151;-77
2023/11/14 00:07:02;;;;;;;25.90;4.20;;;;;;;9.70;83.85;98854.13;10402965;28;20052;-79
2023/11/14 00:12:07;;;;;;;26.85;4.38;;;;;;;9.68;84.07;98857.97;10402427;28;20044;-80
2023/11/14 00:17:10;;;;;;;17.25;3.72;;;;;;;9.90;83.54;98865.56;10409613;28;20052;-78
2023/11/14 00:22:14;;;;;;;29.08;4.75;;;;;;;9.72;83.68;98843.28;10404540;28;20112;-79
2023/11/14 00:27:18;;;;;;;23.13;4.15;;;;;;;9.78;84.18;98837.28;10412722;28;20053;-80
2023/11/14 00:32:21;;;;;;;18.17;4.05;;;;;;;9.90;83.19;98829.84;10400533;28;20051;-79
2023/11/14 00:37:24;;;;;;;18.42;2.67;;;;;;;9.71;83.67;98833.56;10401249;28;20085;-77
2023/11/14 00:42:29;;;;;;;22.23;2.28;;;;;;;9.80;83.47;98821.88;10433220;28;20055;-77
2023/11/14 00:47:33;;;;;;;24.55;4.10;;;;;;;9.97;82.34;98825.53;10419062;28;20405;-78
2023/11/14 00:52:37;;;;;;;18.50;3.40;;;;;;;9.92;82.59;98812.59;10423202;28;20056;-79
2023/11/14 00:57:42;;;;;;;15.30;3.95;;;;;;;9.81;83.35;98807.47;10432742;28;20083;-78
2023/11/14 01:02:45;;;;;;;30.33;3.80;;;;;;;9.91;81.98;98816.28;10434114;28;20064;-79
2023/11/14 01:07:48;;;;;;;18.80;3.00;;;;;;;10.02;81.92;98817.84;10419902;28;20076;-77
2023/11/14 01:12:59;;;;;;;30.85;3.65;;;;;;;9.83;82.86;98820.72;10396429;28;20158;-80
2023/11/14 01:18:02;;;;;;;21.00;4.20;;;;;;;10.02;82.58;98804.44;10402869;28;20045;-79
2023/11/14 01:23:05;;;;;;;29.98;3.95;;;;;;;9.78;84.67;98812.31;10404132;28;20538;-78
2023/11/14 01:28:10;;;;;;;28.92;4.07;;;;;;;10.00;84.28;98801.06;10407279;28;20045;-80
2023/11/14 01:33:13;;;;;;;25.88;4.85;;;;;;;10.03;83.27;98808.81;10402374;28;20045;-79
2023/11/14 01:38:16;;;;;;;19.92;3.75;;;;;;;9.85;82.99;98854.44;10397212;28;20048;-80
2023/11/14 01:43:20;;;;;;;26.30;4.15;;;;;;;9.99;83.45;98849.53;10405999;28;20547;-77
2023/11/14 01:48:23;;;;;;;13.63;2.50;;;;;;;9.78;82.77;98823.03;10410262;28;20049;-79
2023/11/14 01:53:27;;;;;;;13.60;3.10;;;;;;;9.89;82.44;98850.47;10400569;28;20042;-80
2023/11/14 01:58:31;;;;;;;28.38;4.50;;;;;;;9.81;82.99;98791.38;10411215;28;20513;-78
2023/11/14 02:03:36;;;;;;;17.35;3.08;;;;;;;9.50;85.71;98825.84;10410950;28;20052;-79
2023/11/14 02:08:39;;;;;;;30.52;5.72;;;;;;;9.86;84.30;98836.53;10413110;28;20056;-78
2023/11/14 02:13:45;;;;;;;19.23;3.33;;;;;;;9.77;83.82;98824.03;10410283;28;20060;-78
2023/11/14 02:18:49;;;;;;;28.20;6.00;;;;;;;9.85;83.38;98830.31;10407951;28;20057;-79
2023/11/14 02:23:53;;;;;;;17.25;3.60;;;;;;;9.66;85.20;98831.34;10393543;28;20187;-80
2023/11/14 02:28:58;;;;;;;25.00;5.13;;;;;;;9.33;91.45;98832.91;10407788;28;20048;-78
2023/11/14 02:34:02;;;;;;;22.13;4.60;;;;;;;9.13;93.99;98829.53;10403241;28;20055;-79
2023/11/14 02:39:05;;;;;;;29.20;5.13;;;;;;;9.38;92.95;98830.63;10401116;28;20056;-78
2023/11/14 02:44:09;;;;;;;22.02;5.22;;;;;;;9.45;89.50;98854.94;10411286;28;20067;-79
2023/11/14 02:49:30;;;;;;;15.10;3.47;;;;;;;9.57;89.01;98853.72;10405815;28;20049;-79
2023/11/14 02:54:33;;;;;;;15.98;3.35;;;;;;;9.44;89.68;98870.19;10417976;28;20202;-76
2023/11/14 02:59:38;;;;;;;21.30;3.95;;;;;;;9.32;92.38;98871.41;10412322;28;20055;-79
2023/11/14 03:04:41;;;;;;;22.35;3.65;;;;;;;8.94;97.84;98883.22;10412811;28;20052;-79
2023/11/14 03:09:43;;;;;;;19.60;4.28;;;;;;;8.36;100.00;98893.22;10411410;28;20734;-77
2023/11/14 03:14:48;;;;;;;26.80;5.05;;;;;;;8.22;100.00;98839.34;10433273;28;20061;-79
2023/11/14 03:19:51;;;;;;;16.63;4.53;;;;;;;8.25;100.00;98849.75;10432643;28;20056;-81
2023/11/14 03:24:54;;;;;;;21.40;3.53;;;;;;;8.45;100.00;98840.66;10405223;28;20065;-81
2023/11/14 03:29:59;;;;;;;22.85;3.30;;;;;;;8.90;100.00;98863.13;10409375;28;20041;-80
2023/11/14 03:35:02;;;;;;;21.33;3.65;;;;;;;8.97;97.69;98891.00;10401778;28;20623;-78
2023/11/14 03:40:06;;;;;;;29.13;4.38;;;;;;;9.04;97.35;98886.69;10404990;28;20041;-81
2023/11/14 03:45:10;;;;;;;16.63;2.95;;;;;;;9.38;94.30;98880.66;10390568;28;20368;-79
2023/11/14 03:50:13;;;;;;;29.98;4.93;;;;;;;9.23;94.25;98909.84;10401155;28;20060;-77
2023/11/14 03:55:18;;;;;;;22.88;4.80;;;;;;;9.37;94.36;98922.72;10399338;28;20057;-80
2023/11/14 04:00:23;;;;;;;30.88;5.15;;;;;;;9.30;93.58;98892.19;10405149;28;20416;-79
2023/11/14 04:05:26;;;;;;;32.63;4.13;;;;;;;9.63;92.27;98906.72;10388149;28;20145;-79
2023/11/14 04:10:31;;;;;;;17.63;2.72;;;;;;;9.54;92.23;98904.94;10404767;28;20088;-80
2023/11/14 04:15:39;;;;;;;26.65;5.40;;;;;;;9.63;91.62;98874.53;10394980;28;20044;-80
2023/11/14 04:20:42;;;;;;;23.25;4.72;;;;;;;9.37;93.00;98898.59;10410179;28;20051;-77
2023/11/14 04:25:45;;;;;;;21.73;3.58;;;;;;;9.50;91.38;98895.53;10405514;28;20533;-80
2023/11/14 04:30:49;;;;;;;17.15;2.80;;;;;;;9.37;100.00;98903.94;10391180;28;20036;-80
2023/11/14 04:35:53;;;;;;;23.52;5.07;;;;;;;9.26;100.00;98904.19;10402965;28;20172;-79
2023/11/14 04:40:56;;;;;;;27.25;5.05;;;;;;;9.40;95.57;98917.03;10396134;28;20064;-80
2023/11/14 04:46:00;;;;;;;19.40;3.42;;;;;;;9.37;93.47;98905.78;10402059;28;20614;-77
2023/11/14 04:51:03;;;;;;;27.00;4.55;;;;;;;9.63;92.03;98936.22;10396029;28;20133;-78
2023/11/14 04:56:07;;;;;;;22.25;5.20;;;;;;;9.33;93.23;98896.38;10396686;28;20600;-80
2023/11/14 05:01:12;;;;;;;23.50;4.47;;;;;;;9.45;91.90;98893.31;10404127;28;20055;-79
2023/11/14 05:06:15;;;;;;;11.55;2.85;;;;;;;9.58;90.38;98902.81;10404665;28;20505;-79
2023/11/14 05:11:18;;;;;;;9.25;3.17;;;;;;;9.57;89.62;98904.66;10425381;28;20060;-80
2023/11/14 05:16:23;;;;;;;19.38;3.55;;;;;;;9.66;88.85;98903.72;10403219;28;20085;-79
2023/11/14 05:21:26;;;;;;;22.30;3.67;;;;;;;9.62;89.30;98890.78;10396372;28;20049;-80
2023/11/14 05:26:29;;;;;;;20.27;3.90;;;;;;;9.65;89.91;98909.22;10405853;28;20140;-78
2023/11/14 05:31:35;;;;;;;28.02;5.55;;;;;;;9.67;89.75;98889.31;10407802;28;20056;-80
2023/11/14 05:36:38;;;;;;;29.58;5.00;;;;;;;9.59;91.46;98910.69;10407229;28;20588;-79
2023/11/14 05:41:42;;;;;;;18.50;3.65;;;;;;;9.22;94.06;98874.19;10407846;28;20044;-80
2023/11/14 05:46:46;;;;;;;23.27;4.93;;;;;;;9.24;94.41;98874.88;10405477;28;20045;-80
2023/11/14 05:51:49;;;;;;;24.67;4.30;;;;;;;8.39;100.00;98903.63;10407581;28;20083;-80
2023/11/14 05:56:52;;;;;;;22.05;4.43;;;;;;;8.39;100.00;98935.75;10425209;28;20044;-81
2023/11/14 06:01:56;;;;;;;23.00;4.80;;;;;;;8.16;100.00;98924.53;10412573;28;20048;-81
2023/11/14 06:06:59;;;;;;;32.00;4.82;;;;;;;8.11;100.00;98923.28;10419666;28;20059;-79
2023/11/14 06:12:03;;;;;;;30.38;6.40;;;;;;;8.13;100.00;98932.00;10405432;28;20044;-80
2023/11/14 06:17:08;;;;;;;34.55;5.90;;;;;;;8.13;100.00;98934.66;10363794;28;20072;-80
2023/11/14 06:22:11;;;;;;;23.48;5.30;;;;;;;7.90;100.00;98955.53;10397699;28;20049;-79
2023/11/14 06:27:13;;;;;;;30.50;6.63;;;;;;;7.99;100.00;98948.50;10402198;28;20051;-80
2023/11/14 06:32:18;;;;;;;29.20;5.78;;;;;;;7.84;100.00;98961.44;10402472;28;20048;-79
2023/11/14 06:37:21;;;;;;;40.03;6.60;;;;;;;8.18;100.00;98957.31;10400891;28;21107;-77
2023/11/14 06:42:24;;;;;;;19.20;4.68;;;;;;;8.17;100.00;98955.66;10400737;28;20053;-81
2023/11/14 06:47:29;;;;;;;25.00;4.20;;;;;;;8.25;100.00;98967.44;10397240;28;20056;-80
2023/11/14 06:52:32;;;;;;;30.67;6.28;;;;;;;8.29;100.00;98987.59;10392506;28;20057;-81
2023/11/14 06:57:35;;;;;;;31.88;5.18;;;;;;;8.43;100.00;98963.03;10399524;28;20097;-77
2023/11/14 07:02:39;;;;;;;34.00;5.35;;;;;;;8.56;100.00;98954.72;10389262;28;20057;-78
2023/11/14 07:07:44;;;;;;;22.40;4.60;;;;;;;8.52;100.00;98996.97;10395940;28;20042;-79
2023/11/14 07:12:47;;;;;;;26.98;5.35;;;;;;;8.66;100.00;98992.16;10391706;28;20682;-77
2023/11/14 07:17:51;;;;;;;19.80;3.72;;;;;;;8.69;100.00;98986.50;10389578;28;20053;-80
2023/11/14 07:22:55;;;;;;;30.60;5.22;;;;;;;8.94;100.00;99003.75;10396743;28;20056;-78
2023/11/14 07:27:58;;;;;;;25.50;5.22;;;;;;;8.86;100.00;99009.84;10384800;28;20382;-80
2023/11/14 07:33:02;;;;;;;28.77;6.22;;;;;;;9.21;100.00;99010.94;10384203;28;20042;-78
2023/11/14 07:38:05;;;;;;;30.02;5.03;;;;;;;9.26;100.00;99008.66;10380097;28;20044;-79
2023/11/14 07:43:09;;;;;;;26.52;5.47;;;;;;;9.11;100.00;99026.25;10402139;28;20107;-77
2023/11/14 07:48:14;;;;;;;22.52;4.43;;;;;;;9.20;100.00;99017.31;10385418;28;20536;-80
2023/11/14 07:53:17;;;;;;;32.08;5.63;;;;;;;9.26;100.00;99028.25;10379611;28;20065;-80
2023/11/14 07:58:23;;;;;;;32.08;5.47;;;;;;;9.37;100.00;99016.50;10409452;28;20052;-77
2023/11/14 08:03:27;;;;;;;24.35;5.55;;;;;;;8.90;100.00;99037.16;10416859;28;20840;-77
2023/11/14 08:08:30;;;;;;;18.13;4.93;;;;;;;8.74;100.00;99035.09;10409427;28;20064;-80
2023/11/14 08:13:33;;;;;;;21.13;4.82;;;;;;;8.68;100.00;99033.84;10393451;28;20045;-80
2023/11/14 08:18:38;;;;;;;24.48;6.38;;;;;;;8.72;100.00;99034.41;10385992;28;20056;-80
2023/11/14 08:23:42;;;;;;;29.02;8.75;;;;;;;8.84;100.00;99039.44;10386897;28;20127;-79
2023/11/14 08:28:45;;;;;;;33.00;6.05;;;;;;;9.00;100.00;99021.91;10397411;28;20057;-80
2023/11/14 08:33:49;;;;;;;28.65;5.20;;;;;;;9.26;100.00;99022.91;10376929;28;20140;-77
2023/11/14 08:38:52;;;;;;;20.17;3.92;;;;;;;9.12;100.00;99030.59;10386639;28;20051;-79
2023/11/14 08:43:57;;;;;;;45.20;5.93;;;;;;;8.99;100.00;99033.59;10405415;28;20048;-79
2023/11/14 08:49:02;;;;;;;33.70;6.07;;;;;;;8.96;100.00;99023.19;10400148;28;20053;-77
2023/11/14 08:54:05;;;;;;;26.02;5.47;;;;;;;9.00;100.00;99024.59;10417395;28;20045;-78
2023/11/14 08:59:08;;;;;;;29.98;4.82;;;;;;;9.05;100.00;99036.56;10406561;28;20053;-80
2023/11/14 09:04:13;;;;;;;24.45;6.10;;;;;;;9.17;100.00;99039.88;10400308;28;20052;-80
2023/11/14 09:09:18;;;;;;;32.42;4.53;;;;;;;9.32;100.00;99050.09;10410556;28;20053;-79
2023/11/14 09:14:21;;;;;;;30.67;5.60;;;;;;;9.54;100.00;99064.94;10410911;28;20119;-79
2023/11/14 09:19:25;;;;;;;12.13;2.55;;;;;;;9.42;98.33;99061.63;10384973;28;20654;-80
2023/11/14 09:24:28;;;;;;;28.05;4.40;;;;;;;9.64;97.05;99061.22;10403322;28;20049;-79
2023/11/14 09:29:31;;;;;;;27.85;5.03;;;;;;;9.81;96.64;99064.91;10402335;28;20048;-78
2023/11/14 09:34:35;;;;;;;21.25;4.40;;;;;;;9.64;95.94;99063.03;10423218;28;20053;-78
2023/11/14 09:39:39;;;;;;;26.52;4.00;;;;;;;10.02;93.98;99059.28;10419019;28;20057;-79
2023/11/14 09:44:42;;;;;;;26.40;4.55;;;;;;;9.89;93.51;99065.03;10397022;28;20045;-79
2023/11/14 09:49:47;;;;;;;24.67;4.03;;;;;;;9.74;95.51;99087.97;10400281;28;20050;-80
2023/11/14 09:54:50;;;;;;;22.02;3.65;;;;;;;9.79;94.75;99060.69;10409370;28;20064;-80
2023/11/14 09:59:53;;;;;;;25.08;5.72;;;;;;;9.98;94.09;99070.47;10374145;28;20053;-79
2023/11/14 10:04:58;;;;;;;30.77;5.38;;;;;;;10.20;91.95;99075.38;10398192;28;20073;-79
2023/11/14 10:10:13;;;;;;;21.25;5.43;;;;;;;10.01;91.99;99065.66;10397370;28;20191;-80
2023/11/14 10:15:27;;;;;;;24.60;6.00;;;;;;;10.29;89.42;99066.41;10396089;28;20048;-82
2023/11/14 10:20:39;;;;;;;18.13;3.72;;;;;;;10.04;92.81;99072.53;10401090;28;20061;-80
2023/11/14 10:25:45;;;;;;;20.85;4.43;;;;;;;9.66;98.70;99102.13;10388916;28;20068;-82
2023/11/14 10:30:49;;;;;;;20.45;5.18;;;;;;;9.78;100.00;99085.81;10394969;28;20071;-80
2023/11/14 10:36:01;;;;;;;18.92;3.97;;;;;;;9.63;100.00;99102.44;10405052;28;20104;-80
2023/11/14 10:41:04;;;;;;;23.30;4.78;;;;;;;9.43;100.00;99098.97;10400336;28;20412;-79
2023/11/14 10:46:08;;;;;;;24.95;6.00;;;;;;;9.66;100.00;99095.94;10389091;28;21817;-79
2023/11/14 10:51:13;;;;;;;39.38;6.85;;;;;;;9.49;100.00;99085.00;10398378;28;20130;-78
2023/11/14 10:56:16;;;;;;;29.00;5.65;;;;;;;9.24;100.00;99080.31;10400862;28;20042;-77
2023/11/14 11:01:20;;;;;;;27.08;6.28;;;;;;;9.46;100.00;99087.13;10410346;28;20504;-77
2023/11/14 11:06:26;;;;;;;17.02;3.63;;;;;;;9.38;100.00;99060.22;10406368;28;20052;-79
2023/11/14 11:11:33;;;;;;;34.28;5.43;;;;;;;9.47;100.00;99111.09;10402341;28;20057;-77
2023/11/14 11:16:44;;;;;;;23.77;4.63;;;;;;;8.93;100.00;99077.06;10394541;28;20051;-80
2023/11/14 11:22:04;;;;;;;34.22;6.60;;;;;;;8.72;100.00;99069.19;10384810;28;20521;-79
2023/11/14 11:27:19;;;;;;;28.15;7.35;;;;;;;9.26;100.00;99046.19;10391028;28;20555;-79
2023/11/14 11:32:27;;;;;;;44.88;7.80;;;;;;;9.22;100.00;99039.44;10387748;28;20042;-79
2023/11/14 11:37:48;;;;;;;23.38;5.63;;;;;;;9.18;100.00;99019.28;10384975;28;20058;-80
2023/11/14 11:42:53;;;;;;;24.65;4.65;;;;;;;8.90;100.00;99021.94;10395091;28;20053;-79
2023/11/14 11:47:57;;;;;;;24.02;5.22;;;;;;;9.25;100.00;99034.63;10408545;28;20768;-81
2023/11/14 11:53:04;;;;;;;20.20;4.80;;;;;;;9.48;100.00;99051.13;10399790;28;20045;-81
2023/11/14 11:58:08;;;;;;;20.10;3.97;;;;;;;10.01;100.00;99040.66;10397255;28;21226;-79
2023/11/14 12:03:15;;;;;;;23.10;5.30;;;;;;;9.89;100.00;99021.28;10387708;28;20109;-79
2023/11/14 12:08:20;;;;;;;26.58;4.38;;;;;;;10.21;100.00;99018.03;10397855;28;20059;-79
2023/11/14 12:13:23;;;;;;;20.63;4.65;;;;;;;10.57;98.61;99023.34;10387422;28;20154;-78
2023/11/14 12:18:26;;;;;;;18.20;4.03;;;;;;;10.91;95.46;99018.00;10391020;28;20068;-79
2023/11/14 12:23:31;;;;;;;27.20;4.35;;;;;;;10.50;94.31;99011.53;10397669;28;20060;-77
2023/11/14 12:28:39;;;;;;;26.50;4.75;;;;;;;10.65;93.27;99050.25;10396942;28;20053;-77
2023/11/14 12:33:48;;;;;;;23.80;3.17;;;;;;;10.63;90.20;99016.50;10397399;28;20075;-77
2023/11/14 12:38:52;;;;;;;22.08;3.72;;;;;;;10.50;89.60;99031.16;10453442;28;20065;-77
2023/11/14 12:43:58;;;;;;;14.70;2.75;;;;;;;10.60;88.60;99013.13;10432545;28;20140;-79
2023/11/14 12:49:12;;;;;;;18.27;3.83;;;;;;;10.70;88.15;99012.19;10385811;28;20471;-78
2023/11/14 12:54:18;;;;;;;15.50;3.53;;;;;;;10.35;88.60;99017.47;10397043;28;20041;-79
2023/11/14 12:59:21;;;;;;;17.45;3.97;;;;;;;10.48;88.22;99033.19;10386746;28;20052;-80
2023/11/14 13:04:24;;;;;;;28.27;3.83;;;;;;;10.66;87.24;99006.28;10393737;28;20053;-78
2023/11/14 13:09:29;;;;;;;21.67;4.32;;;;;;;10.50;88.10;99003.47;10402097;28;20055;-78
2023/11/14 13:14:33;;;;;;;17.48;4.05;;;;;;;10.96;86.56;99022.91;10394115;28;20731;-78
2023/11/14 13:19:39;;;;;;;18.98;4.40;;;;;;;10.56;86.98;99024.34;10398609;28;20068;-79
2023/11/14 13:24:43;;;;;;;19.95;4.38;;;;;;;10.76;85.78;99043.78;10402633;28;20064;-77
2023/11/14 13:29:46;;;;;;;22.80;4.63;;;;;;;11.02;86.59;99022.25;10403195;28;20037;-79
2023/11/14 13:34:51;;;;;;;14.00;2.72;;;;;;;10.68;87.55;99028.44;10411485;28;20057;-78
2023/11/14 13:39:55;;;;;;;18.90;3.80;;;;;;;10.82;87.45;99000.16;10410471;28;20056;-78
2023/11/14 13:45:10;;;;;;;13.00;2.85;;;;;;;10.73;86.60;98985.84;10409486;28;25289;-79
2023/11/14 13:50:15;;;;;;;18.73;4.55;;;;;;;10.93;86.66;98985.59;10417415;28;20052;-78
2023/11/14 13:55:21;;;;;;;25.05;4.38;;;;;;;10.66;87.24;98983.94;10401509;28;20049;-78
2023/11/14 14:00:26;;;;;;;15.95;4.75;;;;;;;10.76;86.69;99000.81;10426021;28;20067;-79
2023/11/14 14:05:29;;;;;;;13.77;2.03;;;;;;;10.83;85.17;98983.03;10404009;28;20060;-78
2023/11/14 14:10:34;;;;;;;15.63;3.33;;;;;;;11.02;83.71;98968.50;10411449;28;20049;-79
2023/11/14 14:15:37;;;;;;;7.18;2.15;;;;;;;10.65;85.65;98974.22;10413762;28;20049;-78
2023/11/14 14:20:40;;;;;;;13.50;3.70;;;;;;;10.78;85.09;98967.41;10408006;28;20432;-78
2023/11/14 14:25:46;;;;;;;10.80;3.28;;;;;;;10.63;85.26;98985.09;10399429;28;20056;-77
2023/11/14 14:30:49;;;;;;;12.13;3.42;;;;;;;10.68;85.35;98961.31;10395468;28;20050;-77
2023/11/14 14:35:52;;;;;;;14.27;3.95;;;;;;;10.79;85.26;98949.44;10387918;28;20493;-79
2023/11/14 14:40:57;;;;;;;14.57;3.90;;;;;;;10.74;85.43;98954.47;10410250;28;20077;-79
2023/11/14 14:46:00;;;;;;;18.13;4.70;;;;;;;10.93;84.79;98958.75;10387303;28;20215;-80
2023/11/14 14:51:04;;;;;;;13.93;3.10;;;;;;;10.58;86.41;98976.69;10392198;28;20065;-78
2023/11/14 14:56:08;;;;;;;14.93;4.45;;;;;;;10.61;87.24;98968.31;10405423;28;20045;-80
2023/11/14 15:01:11;;;;;;;21.05;4.03;;;;;;;10.76;85.86;98964.03;10388174;28;20497;-78
2023/11/14 15:06:14;;;;;;;14.43;3.63;;;;;;;10.61;86.02;98966.50;10390526;28;20060;-79
2023/11/14 15:11:18;;;;;;;10.88;3.13;;;;;;;10.39;86.26;98970.56;10390185;28;20471;-80
2023/11/14 15:16:21;;;;;;;16.15;4.07;;;;;;;10.66;85.48;98968.69;10399227;28;20056;-78
2023/11/14 15:21:24;;;;;;;15.85;3.63;;;;;;;10.65;85.60;98977.75;10395151;28;20132;-79
2023/11/14 15:26:29;;;;;;;18.25;4.15;;;;;;;10.59;86.36;98979.22;10401281;28;20048;-79
2023/11/14 15:31:33;;;;;;;22.73;4.40;;;;;;;10.74;85.58;98955.28;10408066;28;20102;-77
2023/11/14 15:36:36;;;;;;;14.85;3.30;;;;;;;10.64;85.75;98968.03;10398352;28;20047;-78
2023/11/14 15:41:40;;;;;;;14.82;2.90;;;;;;;10.43;86.00;98962.19;10392152;28;20057;-78
2023/11/14 15:46:43;;;;;;;14.50;3.53;;;;;;;10.78;84.35;98962.03;10391888;28;20059;-79
2023/11/14 15:51:46;;;;;;;11.80;3.47;;;;;;;10.50;85.59;98963.22;10394692;28;20060;-77
2023/11/14 15:56:52;;;;;;;18.13;4.75;;;;;;;10.57;85.45;98956.22;10388616;28;20065;-77
2023/11/14 16:01:55;;;;;;;11.07;2.90;;;;;;;10.56;84.59;98935.75;10401017;28;20061;-77
2023/11/14 16:06:58;;;;;;;13.48;2.83;;;;;;;10.58;84.16;98964.09;10408310;28;20053;-77
2023/11/14 16:12:03;;;;;;;6.55;2.22;;;;;;;10.49;84.72;98940.06;10443429;28;21204;-79
2023/11/14 16:17:06;;;;;;;11.93;2.80;;;;;;;10.52;85.27;98942.44;10397441;28;20393;-78
2023/11/14 16:22:09;;;;;;;11.35;3.33;;;;;;;10.32;85.25;98939.13;10407602;28;20045;-78
2023/11/14 16:27:13;;;;;;;12.50;3.40;;;;;;;10.36;85.27;98940.47;10399407;28;20060;-79
2023/11/14 16:32:19;;;;;;;12.88;3.00;;;;;;;10.37;85.33;98928.75;10401165;28;20041;-79
2023/11/14 16:37:23;;;;;;;11.30;2.75;;;;;;;10.37;84.64;98939.50;10399107;28;20045;-78
2023/11/14 16:42:28;;;;;;;10.55;2.60;;;;;;;10.63;83.27;98930.56;10393166;28;20057;-79
2023/11/14 16:47:31;;;;;;;7.65;2.78;;;;;;;10.22;85.22;98914.22;10396889;28;20064;-77
2023/11/14 16:52:34;;;;;;;6.13;2.60;;;;;;;10.66;82.95;98914.97;10389882;28;20053;-79
2023/11/14 16:57:41;;;;;;;8.50;3.25;;;;;;;10.27;85.74;98917.28;10391641;28;20053;-78
2023/11/14 17:02:44;;;;;;;11.38;3.22;;;;;;;10.47;84.22;98923.25;10411350;28;20172;-79
2023/11/14 17:07:48;;;;;;;12.93;3.55;;;;;;;10.29;85.45;98917.97;10423842;28;20049;-77
2023/11/14 17:12:52;;;;;;;6.47;3.10;;;;;;;10.33;85.97;98916.63;10421586;28;20056;-79
2023/11/14 17:17:55;;;;;;;5.43;2.85;;;;;;;10.12;89.33;98901.78;10410544;28;20064;-77
2023/11/14 17:23:01;;;;;;;9.15;3.15;;;;;;;10.10;90.70;98909.13;10426756;28;20140;-79
2023/11/14 17:28:05;;;;;;;8.88;3.33;;;;;;;9.94;93.41;98904.47;10415243;28;20053;-78
2023/11/14 17:33:08;;;;;;;10.77;3.78;;;;;;;9.63;96.73;98917.44;10412829;28;20041;-78
2023/11/14 17:38:13;;;;;;;7.13;2.83;;;;;;;9.60;98.78;98908.84;10404602;28;20056;-80
2023/11/14 17:43:17;;;;;;;5.47;2.92;;;;;;;9.29;100.00;98911.91;10409337;28;20191;-78
2023/11/14 17:48:21;;;;;;;9.35;2.97;;;;;;;9.02;100.00;98928.84;10409612;28;21633;-79
2023/11/14 17:53:24;;;;;;;7.85;2.58;;;;;;;9.05;100.00;98931.22;10401551;28;20040;-77
2023/11/14 17:58:29;;;;;;;9.57;3.13;;;;;;;8.54;100.00;98913.88;10404283;28;20497;-79
2023/11/14 18:03:32;;;;;;;9.57;3.70;;;;;;;8.64;100.00;98913.81;10391788;28;20053;-81
2023/11/14 18:08:35;;;;;;;9.45;4.03;;;;;;;8.53;100.00;98929.09;10398000;28;20049;-82
2023/11/14 18:13:40;;;;;;;9.95;3.53;;;;;;;8.77;100.00;98911.66;10405621;28;20053;-79
2023/11/14 18:18:43;;;;;;;12.30;3.55;;;;;;;8.64;100.00;98917.38;10392834;28;20042;-82
2023/11/14 18:23:46;;;;;;;5.68;3.25;;;;;;;8.44;100.00;98918.38;10411802;28;20118;-81
2023/11/14 18:28:52;;;;;;;9.43;3.75;;;;;;;8.54;100.00;98909.38;10423304;28;20041;-77
2023/11/14 18:33:57;;;;;;;8.15;3.55;;;;;;;8.38;100.00;98919.81;10447027;28;20052;-78
2023/11/14 18:39:01;;;;;;;19.17;4.88;;;;;;;8.53;100.00;98907.69;10418941;28;20071;-80
2023/11/14 18:44:08;;;;;;;16.20;4.93;;;;;;;8.30;100.00;98901.81;10452319;28;20349;-77
2023/11/14 18:49:11;;;;;;;6.22;3.80;;;;;;;8.37;100.00;98891.38;10433333;28;20130;-78
2023/11/14 18:54:14;;;;;;;8.25;5.18;;;;;;;8.33;100.00;98895.31;10406845;28;20041;-80
2023/11/14 18:59:18;;;;;;;15.07;6.00;;;;;;;8.57;100.00;98893.00;10423953;28;20053;-81
2023/11/14 19:04:22;;;;;;;17.52;7.50;;;;;;;8.74;100.00;98887.88;10409424;28;20124;-79
2023/11/14 19:09:25;;;;;;;16.45;8.63;;;;;;;8.83;100.00;98881.59;10417673;28;20056;-79
2023/11/14 19:14:30;;;;;;;14.27;7.03;;;;;;;8.53;100.00;98885.41;10411632;28;20053;-81
2023/11/14 19:19:33;;;;;;;15.50;8.32;;;;;;;8.56;100.00;98877.13;10406855;28;20146;-80
2023/11/14 19:24:36;;;;;;;21.75;8.48;;;;;;;8.74;100.00;98891.38;10418870;28;20059;-78
2023/11/14 19:29:42;;;;;;;15.48;8.55;;;;;;;8.74;100.00;98886.03;10424177;28;20123;-79
2023/11/14 19:34:46;;;;;;;17.80;8.13;;;;;;;8.69;100.00;98884.78;10402721;28;20063;-80
2023/11/14 19:39:49;;;;;;;16.63;8.70;;;;;;;8.48;100.00;98885.88;10408827;28;20698;-78
2023/11/14 19:44:54;;;;;;;17.02;10.32;;;;;;;8.90;100.00;98896.09;10418515;28;20103;-80
2023/11/14 19:49:58;;;;;;;21.45;11.23;;;;;;;8.84;100.00;98897.53;10409294;28;20049;-80
2023/11/14 19:55:01;;;;;;;21.05;11.68;;;;;;;8.81;100.00;98897.84;10423682;28;20064;-80
2023/11/14 20:00:14;;;;;;;22.88;10.63;;;;;;;8.67;100.00;98898.34;10405344;28;20122;-81
2023/11/14 20:05:17;;;;;;;19.05;8.68;;;;;;;8.58;100.00;98899.19;10421010;28;20049;-80
2023/11/14 20:10:20;;;;;;;20.98;8.95;;;;;;;8.60;100.00;98899.91;10421240;28;20053;-78
2023/11/14 20:15:25;;;;;;;14.73;8.20;;;;;;;8.52;100.00;98903.31;10418127;28;20068;-79
2023/11/14 20:20:28;;;;;;;18.60;8.65;;;;;;;8.46;100.00;98908.44;10423456;28;20115;-80
2023/11/14 20:25:31;;;;;;;18.17;6.85;;;;;;;8.23;100.00;98910.56;10415910;28;21200;-81
2023/11/14 20:30:35;;;;;;;12.95;7.85;;;;;;;8.21;100.00;98916.06;10403785;28;21124;-78
2023/11/14 20:35:38;;;;;;;21.45;8.55;;;;;;;8.35;100.00;98923.63;10429472;28;20079;-80
2023/11/14 20:40:42;;;;;;;13.82;7.15;;;;;;;8.24;100.00;98925.63;10424801;28;20744;-79
2023/11/14 20:45:50;;;;;;;13.23;7.55;;;;;;;8.45;100.00;98930.75;10432725;28;20063;-81
2023/11/14 20:50:54;;;;;;;14.25;7.63;;;;;;;8.07;100.00;98935.25;10430118;28;20053;-80
2023/11/14 20:55:57;;;;;;;10.77;5.70;;;;;;;8.06;100.00;98950.44;10425558;28;20452;-81
2023/11/14 21:01:02;;;;;;;9.65;5.60;;;;;;;7.87;100.00;98961.16;10435494;28;20045;-82
2023/11/14 21:06:05;;;;;;;11.50;6.30;;;;;;;8.22;100.00;98959.72;10422395;28;20060;-79
2023/11/14 21:11:09;;;;;;;11.98;6.68;;;;;;;8.09;100.00;98974.25;10441170;28;20048;-81
2023/11/14 21:16:14;;;;;;;12.32;5.00;;;;;;;7.79;100.00;98980.59;10426015;28;20061;-79
2023/11/14 21:21:17;;;;;;;9.07;5.40;;;;;;;7.68;100.00;98989.59;10427964;28;20045;-79
2023/11/14 21:26:21;;;;;;;9.88;6.38;;;;;;;7.92;100.00;98989.16;10406547;28;20049;-82
2023/11/14 21:31:29;;;;;;;9.90;5.45;;;;;;;8.04;100.00;98986.34;10414806;28;20065;-80
2023/11/14 21:36:32;;;;;;;9.65;4.85;;;;;;;7.95;100.00;98994.25;10404588;28;20045;-81
2023/11/14 21:41:35;;;;;;;12.10;5.63;;;;;;;7.89;100.00;99002.81;10409434;28;20041;-81
2023/11/14 21:46:39;;;;;;;15.75;5.53;;;;;;;7.51;100.00;99016.97;10375667;28;20046;-80
2023/11/14 21:51:42;;;;;;;10.57;5.07;;;;;;;7.75;100.00;99026.44;10388545;28;20439;-80
2023/11/14 21:56:45;;;;;;;12.93;5.25;;;;;;;7.91;100.00;99030.25;10413095;28;20063;-80
2023/11/14 22:01:50;;;;;;;10.32;5.60;;;;;;;7.95;100.00;99034.34;10405896;28;21300;-81
2023/11/14 22:06:53;;;;;;;13.75;5.80;;;;;;;7.81;100.00;99052.59;10415474;28;20084;-81
2023/11/14 22:11:56;;;;;;;12.60;5.85;;;;;;;7.58;100.00;99054.69;10429640;28;20037;-78
2023/11/14 22:17:00;;;;;;;12.05;6.60;;;;;;;7.81;100.00;99053.44;10418844;28;20048;-81
2023/11/14 22:22:04;;;;;;;10.18;5.90;;;;;;;7.69;100.00;99073.28;10417549;28;20198;-83
2023/11/14 22:27:07;;;;;;;9.00;5.75;;;;;;;7.87;100.00;99076.09;10393408;28;20057;-79
2023/11/14 22:32:11;;;;;;;9.40;6.40;;;;;;;8.03;100.00;99092.44;10403919;28;21134;-80
2023/11/14 22:37:14;;;;;;;13.95;6.30;;;;;;;7.66;100.00;99101.13;10402989;28;20052;-82
2023/11/14 22:42:17;;;;;;;9.57;6.53;;;;;;;7.84;100.00;99120.00;10399100;28;20045;-80
2023/11/14 22:47:21;;;;;;;10.40;5.70;;;;;;;7.98;100.00;99133.97;10413573;28;20048;-80
2023/11/14 22:52:24;;;;;;;11.25;6.00;;;;;;;7.88;100.00;99136.63;10400981;28;20775;-81
2023/11/14 22:57:27;;;;;;;11.93;6.22;;;;;;;8.22;100.00;99160.34;10409709;28;20051;-79
2023/11/14 23:02:32;;;;;;;10.60;6.22;;;;;;;8.08;100.00;99173.13;10398210;28;20061;-79
2023/11/14 23:07:35;;;;;;;9.00;5.53;;;;;;;8.07;100.00;99183.97;10410491;28;21108;-79
2023/11/14 23:12:39;;;;;;;10.60;5.90;;;;;;;7.71;100.00;99196.94;10411654;28;20830;-80
2023/11/14 23:17:44;;;;;;;13.43;6.13;;;;;;;8.00;100.00;99209.56;10410796;28;20057;-79
2023/11/14 23:22:47;;;;;;;12.75;5.78;;;;;;;7.90;100.00;99215.72;10413937;28;20052;-80